Time;durP1;ratioP1;P1;durP2;ratioP2;P2;SDS_P1;SDS_P2;PMS_P1;PMS_P2;Temp;Humidity;BMP_temperature;BMP_pressure;BME280_temperature;BME280_humidity;BME280_pressure;Samples;Min_cycle;Max_cycle;Signal;HPM_P1;HPM_P2
2022/10/18 00:01:38;;;;;;;;;9.67;9.33;;;;;17.97;88.06;101955.41;5053625;28;45501;-66
2022/10/18 00:04:03;;;;;;;;;10.67;10.00;;;;;17.94;88.20;101953.66;5070162;28;45706;-66
2022/10/18 00:06:30;;;;;;;;;10.00;9.00;;;;;17.95;88.14;101965.13;5072734;28;45493;-65
2022/10/18 00:08:56;;;;;;;;;9.67;9.67;;;;;18.02;87.80;101966.84;5069280;28;45421;-66
2022/10/18 00:11:21;;;;;;;;;7.00;6.33;;;;;17.97;87.52;101944.78;5070131;28;45509;-65
2022/10/18 00:13:47;;;;;;;;;8.00;8.00;;;;;18.12;87.54;101965.84;5069920;28;45526;-65
2022/10/18 00:16:15;;;;;;;;;7.33;7.33;;;;;18.13;87.60;101961.44;5071691;27;45603;-69
2022/10/18 00:18:43;;;;;;;;;9.67;6.33;;;;;18.21;87.14;101970.19;5070658;28;45477;-68
2022/10/18 00:21:19;;;;;;;;;9.67;8.33;;;;;18.18;86.90;101968.44;5055967;28;45958;-65
2022/10/18 00:23:45;;;;;;;;;9.00;8.67;;;;;18.12;87.30;101965.84;5074542;28;45570;-66
2022/10/18 00:26:14;;;;;;;;;15.67;9.33;;;;;17.95;87.00;101947.44;5065406;28;47666;-68
2022/10/18 00:28:41;;;;;;;;;8.00;8.00;;;;;18.19;87.59;101987.88;5080841;27;45453;-68
2022/10/18 00:31:32;;;;;;;;;12.67;7.67;;;;;18.13;87.51;101972.06;5081540;27;45497;-70
2022/10/18 00:34:00;;;;;;;;;7.67;7.67;;;;;18.21;87.43;101992.28;5073718;27;45460;-68
2022/10/18 00:36:29;;;;;;;;;11.33;8.67;;;;;18.17;87.69;101993.19;5069841;28;46611;-69
2022/10/18 00:38:55;;;;;;;;;11.33;9.33;;;;;18.16;87.95;101994.09;5092190;27;46098;-65
2022/10/18 00:41:25;;;;;;;;;10.67;8.67;;;;;18.15;87.82;101992.34;5065959;28;45371;-70
2022/10/18 00:43:58;;;;;;;;;4.00;2.33;;;;;18.14;87.75;101989.69;5076168;27;45566;-68
2022/10/18 00:46:26;;;;;;;;;13.00;9.33;;;;;18.14;87.86;101984.41;5076334;28;45657;-68
2022/10/18 00:48:54;;;;;;;;;13.33;11.33;;;;;18.09;87.66;101979.13;5079505;27;45420;-69
2022/10/18 00:51:22;;;;;;;;;11.67;11.67;;;;;17.94;87.97;101982.81;5076212;27;45753;-66
2022/10/18 00:53:48;;;;;;;;;12.33;8.67;;;;;17.99;87.96;101988.06;5066736;28;45407;-66
2022/10/18 00:56:14;;;;;;;;;11.00;10.67;;;;;18.03;87.90;101989.78;5080820;28;45434;-66
2022/10/18 00:58:42;;;;;;;;;13.33;11.67;;;;;18.04;87.89;101998.66;5080694;28;45367;-67
2022/10/18 01:01:07;;;;;;;;;15.33;12.33;;;;;18.01;88.09;101996.91;5076308;27;45534;-66
2022/10/18 01:03:34;;;;;;;;;9.67;8.33;;;;;17.97;87.92;101998.69;5059520;28;45470;-65
2022/10/18 01:06:00;;;;;;;;;9.00;9.00;;;;;17.94;88.20;101995.19;5074186;27;46310;-66
2022/10/18 01:08:57;;;;;;;;;8.67;8.33;;;;;18.00;87.93;102005.72;5071732;27;45611;-66
2022/10/18 01:11:32;;;;;;;;;9.67;8.33;;;;;18.01;87.58;101984.53;5061962;27;45789;-65
2022/10/18 01:14:17;;;;;;;;;9.33;7.67;;;;;18.16;87.34;102001.19;5064089;28;45537;-65
2022/10/18 01:16:53;;;;;;;;;9.00;8.67;;;;;18.16;87.02;101991.44;5048279;28;46773;-66
2022/10/18 01:19:47;;;;;;;;;11.33;9.33;;;;;18.22;87.04;101995.78;5066032;28;45409;-69
2022/10/18 01:22:31;;;;;;;;;8.33;8.33;;;;;18.23;86.67;102003.75;5077332;28;45411;-65
2022/10/18 01:25:08;;;;;;;;;9.00;7.67;;;;;18.20;87.00;102000.25;5075631;28;45463;-66
2022/10/18 01:27:49;;;;;;;;;8.33;8.33;;;;;18.28;86.72;102001.06;5057023;28;47960;-66
2022/10/18 01:30:33;;;;;;;;;11.33;7.67;;;;;18.29;86.78;102000.16;5075743;28;45776;-66
2022/10/18 01:33:24;;;;;;;;;10.33;9.00;;;;;18.30;86.64;101999.28;5078520;27;45366;-65
2022/10/18 01:36:04;;;;;;;;;10.00;10.00;;;;;18.19;86.82;101990.53;5075369;28;45653;-67
2022/10/18 01:38:32;;;;;;;;;8.33;8.33;;;;;18.22;86.85;102009.97;5074949;27;45590;-65
2022/10/18 01:41:01;;;;;;;;;12.33;10.33;;;;;18.28;86.74;102010.78;5076570;27;45418;-65
2022/10/18 01:43:28;;;;;;;;;10.00;7.67;;;;;18.31;86.90;102005.44;5062972;28;45481;-66
2022/10/18 01:45:58;;;;;;;;;10.33;9.67;;;;;18.31;86.10;102005.44;5069310;28;45442;-66
2022/10/18 01:48:24;;;;;;;;;10.00;10.00;;;;;18.32;86.21;102008.09;5071813;28;47859;-67
2022/10/18 01:50:51;;;;;;;;;10.00;9.67;;;;;18.30;86.47;102003.69;5048275;28;45445;-66
2022/10/18 01:53:29;;;;;;;;;11.00;9.00;;;;;18.29;86.05;102008.09;5056114;28;45500;-66
2022/10/18 01:56:33;;;;;;;;;9.33;7.67;;;;;18.17;86.48;101984.34;5075644;27;45550;-68
2022/10/18 01:59:12;;;;;;;;;13.33;9.67;;;;;18.22;86.10;101991.41;5043193;28;45567;-65
2022/10/18 02:02:06;;;;;;;;;9.67;7.67;;;;;18.24;85.95;101988.72;5079334;28;45315;-68
2022/10/18 02:04:53;;;;;;;;;11.00;10.00;;;;;18.25;86.04;101997.53;5067801;28;45382;-65
2022/10/18 02:07:18;;;;;;;;;12.00;9.33;;;;;18.27;85.94;101998.41;5074951;28;45611;-68
2022/10/18 02:09:58;;;;;;;;;10.33;8.67;;;;;18.21;85.53;101980.78;5074708;28;45564;-67
2022/10/18 02:12:25;;;;;;;;;11.33;8.00;;;;;18.17;85.99;101981.72;5075592;28;45340;-67
2022/10/18 02:14:52;;;;;;;;;9.33;7.33;;;;;18.07;85.82;101962.38;5076671;28;45421;-67
2022/10/18 02:17:20;;;;;;;;;10.00;8.67;;;;;18.22;85.45;101990.50;5095382;27;45365;-65
2022/10/18 02:19:52;;;;;;;;;8.00;7.00;;;;;18.23;85.71;101993.13;5060638;28;46818;-65
2022/10/18 02:22:19;;;;;;;;;11.00;8.00;;;;;18.10;85.65;101980.00;5074845;28;45538;-66
2022/10/18 02:24:52;;;;;;;;;12.00;8.67;;;;;18.12;85.77;101992.34;5056581;28;45457;-65
2022/10/18 02:27:18;;;;;;;;;11.00;10.00;;;;;18.10;85.94;101985.31;5074534;28;45656;-71
2022/10/18 02:29:44;;;;;;;;;13.67;8.67;;;;;18.08;85.91;101990.66;5074398;28;46215;-66
2022/10/18 02:32:55;;;;;;;;;12.00;10.67;;;;;18.07;86.24;101998.59;5074223;28;45459;-68
2022/10/18 02:35:34;;;;;;;;;7.33;7.33;;;;;17.90;86.30;101980.19;5068411;28;45733;-66
2022/10/18 02:38:03;;;;;;;;;11.00;10.33;;;;;18.04;86.12;102009.25;5076667;27;45501;-65
2022/10/18 02:40:29;;;;;;;;;9.33;9.00;;;;;17.97;86.09;102003.13;5078840;28;45418;-65
2022/10/18 02:42:56;;;;;;;;;8.00;5.33;;;;;18.00;86.22;102011.91;5077833;28;45559;-65
2022/10/18 02:45:23;;;;;;;;;9.33;9.33;;;;;17.83;86.46;101989.97;5065028;28;45459;-66
2022/10/18 02:47:49;;;;;;;;;11.33;11.00;;;;;17.91;86.64;102014.63;5056342;28;45572;-65
2022/10/18 02:50:15;;;;;;;;;8.00;8.00;;;;;17.87;86.66;102019.97;5072220;27;45593;-64
2022/10/18 02:52:41;;;;;;;;;10.00;10.00;;;;;17.89;86.78;102031.44;5094074;27;45419;-65
2022/10/18 02:55:07;;;;;;;;;14.33;10.00;;;;;17.87;86.96;102036.78;5078880;28;45451;-65
2022/10/18 02:57:32;;;;;;;;;9.33;9.33;;;;;17.87;87.02;102038.50;5060406;28;45300;-65
2022/10/18 02:59:58;;;;;;;;;15.33;12.67;;;;;17.76;87.23;102028.84;5073958;27;46268;-65
2022/10/18 03:02:25;;;;;;;;;18.67;16.00;;;;;17.69;87.59;102026.25;5074939;28;45590;-65
2022/10/18 03:04:50;;;;;;;;;17.67;14.00;;;;;17.65;87.42;102024.50;5075762;28;45611;-66
2022/10/18 03:07:16;;;;;;;;;13.67;11.33;;;;;17.63;88.02;102024.53;5078374;28;45328;-65
2022/10/18 03:09:42;;;;;;;;;15.33;13.33;;;;;17.53;88.31;102028.13;5078378;28;46470;-66
2022/10/18 03:12:07;;;;;;;;;13.67;11.33;;;;;17.10;88.54;101971.00;5076834;28;45394;-66
2022/10/18 03:14:33;;;;;;;;;15.67;14.33;;;;;17.43;88.59;102027.31;5077524;27;45521;-67
2022/10/18 03:16:59;;;;;;;;;15.67;12.00;;;;;17.36;88.48;102026.44;5074056;28;45646;-65
2022/10/18 03:19:24;;;;;;;;;15.00;10.67;;;;;17.26;89.05;102019.47;5074148;28;45883;-66
2022/10/18 03:21:50;;;;;;;;;11.67;10.33;;;;;17.33;88.95;102031.78;5074139;28;45421;-65
2022/10/18 03:24:16;;;;;;;;;10.67;10.67;;;;;17.32;88.94;102034.41;5073738;28;45500;-65
2022/10/18 03:26:41;;;;;;;;;13.67;12.33;;;;;17.46;88.48;102048.47;5074198;28;45446;-65
2022/10/18 03:29:08;;;;;;;;;13.00;10.33;;;;;17.52;88.25;102055.50;5074165;28;45456;-67
2022/10/18 03:31:34;;;;;;;;;11.67;9.67;;;;;17.45;87.93;102043.19;5076338;28;45583;-65
2022/10/18 03:33:59;;;;;;;;;14.67;13.67;;;;;17.44;87.98;102044.06;5073251;28;45695;-66
2022/10/18 03:36:25;;;;;;;;;19.00;17.00;;;;;17.45;88.05;102056.44;5089618;27;45428;-66
2022/10/18 03:38:50;;;;;;;;;14.33;13.33;;;;;17.36;88.36;102045.00;5074181;28;46122;-66
2022/10/18 03:41:16;;;;;;;;;17.00;15.33;;;;;17.41;88.10;102042.31;5073800;28;45468;-65
2022/10/18 03:43:42;;;;;;;;;11.67;9.67;;;;;17.51;88.07;102053.75;5066995;28;45468;-65
2022/10/18 03:46:07;;;;;;;;;12.33;11.67;;;;;17.54;88.03;102056.38;5073630;28;45475;-68
2022/10/18 03:48:33;;;;;;;;;13.33;10.00;;;;;17.57;88.26;102061.66;5077876;28;45399;-65
2022/10/18 03:50:58;;;;;;;;;21.33;12.00;;;;;17.56;87.66;102063.44;5077670;28;45462;-65
2022/10/18 03:53:24;;;;;;;;;17.33;10.33;;;;;17.55;87.98;102056.34;5076421;28;45476;-66
2022/10/18 03:55:54;;;;;;;;;16.00;11.67;;;;;17.57;88.44;102059.88;5074812;28;45587;-65
2022/10/18 03:58:20;;;;;;;;;16.67;13.67;;;;;17.48;88.05;102052.00;5067320;28;45654;-65
2022/10/18 04:00:49;;;;;;;;;12.67;12.67;;;;;17.52;88.34;102064.34;5077720;28;45405;-65
2022/10/18 04:03:15;;;;;;;;;10.33;9.33;;;;;17.47;88.33;102052.88;5075922;28;45330;-65
2022/10/18 04:05:41;;;;;;;;;14.33;13.00;;;;;17.48;88.42;102069.66;5071817;28;46002;-65
2022/10/18 04:08:06;;;;;;;;;12.00;11.00;;;;;17.41;88.02;102057.34;5072720;28;45314;-64
2022/10/18 04:10:32;;;;;;;;;15.00;12.33;;;;;17.49;87.83;102072.31;5073270;28;45418;-66
2022/10/18 04:12:57;;;;;;;;;16.67;14.33;;;;;17.46;87.82;102059.06;5073674;27;45723;-65
2022/10/18 04:15:23;;;;;;;;;19.67;15.00;;;;;17.54;87.68;102082.88;5055540;28;45575;-65
2022/10/18 04:17:48;;;;;;;;;14.67;14.67;;;;;17.49;88.00;102084.69;5072480;28;45671;-68
2022/10/18 04:20:14;;;;;;;;;18.33;11.00;;;;;17.36;87.70;102066.16;5056237;28;45618;-65
2022/10/18 04:22:40;;;;;;;;;20.67;15.67;;;;;17.44;87.73;102082.06;5074292;28;45449;-66
2022/10/18 04:25:05;;;;;;;;;17.33;11.67;;;;;17.43;87.71;102076.75;5073316;28;45944;-64
2022/10/18 04:27:31;;;;;;;;;13.33;11.33;;;;;17.43;87.68;102068.81;5072619;27;45467;-66
2022/10/18 04:29:56;;;;;;;;;14.33;10.67;;;;;17.43;87.46;102063.50;5072964;28;45964;-67
2022/10/18 04:32:22;;;;;;;;;15.67;13.67;;;;;17.52;87.59;102082.00;5077745;28;46761;-65
2022/10/18 04:34:47;;;;;;;;;12.67;11.67;;;;;17.44;87.36;102067.91;5077754;28;45510;-67
2022/10/18 04:37:13;;;;;;;;;20.67;15.67;;;;;17.46;87.44;102067.00;5074243;28;45531;-64
2022/10/18 04:39:38;;;;;;;;;18.33;15.67;;;;;17.45;87.42;102078.50;5072882;27;45691;-65
2022/10/18 04:42:04;;;;;;;;;22.00;17.67;;;;;17.38;87.40;102074.13;5072775;28;45301;-64
2022/10/18 04:44:30;;;;;;;;;20.00;16.33;;;;;17.45;87.44;102077.63;5060380;28;45726;-66
2022/10/18 04:46:55;;;;;;;;;17.00;15.33;;;;;17.45;87.12;102072.31;5076392;27;45280;-64
2022/10/18 04:49:21;;;;;;;;;18.67;14.33;;;;;17.47;87.25;102078.50;5072143;28;45429;-65
2022/10/18 04:51:46;;;;;;;;;14.33;12.00;;;;;17.42;87.15;102065.28;5076900;28;45414;-66
2022/10/18 04:54:12;;;;;;;;;14.67;12.33;;;;;17.46;87.11;102074.94;5076990;28;45276;-65
2022/10/18 04:56:37;;;;;;;;;14.00;14.00;;;;;17.45;87.05;102086.44;5075080;27;45339;-66
2022/10/18 04:59:03;;;;;;;;;14.33;11.67;;;;;17.50;86.87;102091.72;5076244;28;45426;-66
2022/10/18 05:01:29;;;;;;;;;15.67;15.00;;;;;17.47;86.84;102095.28;5070241;28;45804;-65
2022/10/18 05:03:55;;;;;;;;;17.33;14.67;;;;;17.46;86.94;102095.25;5074779;28;45600;-67
2022/10/18 05:06:21;;;;;;;;;21.67;18.00;;;;;17.37;87.13;102089.13;5072171;28;45618;-67
2022/10/18 05:08:47;;;;;;;;;18.67;17.33;;;;;17.37;87.19;102091.78;5053401;28;45451;-66
2022/10/18 05:11:13;;;;;;;;;17.33;16.67;;;;;17.34;87.09;102083.84;5087273;27;45731;-65
2022/10/18 05:13:38;;;;;;;;;17.33;12.67;;;;;17.42;86.93;102097.06;5073838;27;45604;-65
2022/10/18 05:16:05;;;;;;;;;16.67;13.00;;;;;17.38;87.09;102092.66;5075143;28;46331;-65
2022/10/18 05:18:30;;;;;;;;;13.67;12.67;;;;;17.41;86.64;102091.75;5075645;28;45391;-67
2022/10/18 05:20:56;;;;;;;;;15.67;12.67;;;;;17.44;86.98;102090.00;5074739;27;45509;-64
2022/10/18 05:23:21;;;;;;;;;15.67;13.67;;;;;17.44;87.04;102079.41;5075790;27;45577;-66
2022/10/18 05:25:47;;;;;;;;;15.00;12.33;;;;;17.48;86.88;102101.44;5075270;27;45529;-68
2022/10/18 05:28:13;;;;;;;;;20.00;14.33;;;;;17.46;86.71;102097.91;5075060;27;45983;-68
2022/10/18 05:30:40;;;;;;;;;21.67;16.33;;;;;17.29;86.87;102085.63;5076557;27;45874;-72
2022/10/18 05:33:06;;;;;;;;;17.67;14.67;;;;;17.30;87.26;102094.47;5080522;28;45531;-71
2022/10/18 05:35:32;;;;;;;;;13.33;13.00;;;;;17.27;87.51;102098.00;5062524;28;45526;-71
2022/10/18 05:38:02;;;;;;;;;15.00;12.67;;;;;17.22;87.34;102075.94;5079079;28;45500;-73
2022/10/18 05:40:27;;;;;;;;;14.00;12.33;;;;;17.40;87.02;102090.03;5080211;28;45336;-66
2022/10/18 05:42:53;;;;;;;;;12.33;12.00;;;;;17.36;86.31;102083.84;5076271;28;45441;-65
2022/10/18 05:45:18;;;;;;;;;16.67;13.00;;;;;17.32;86.67;102079.44;5065403;28;45616;-65
2022/10/18 05:47:44;;;;;;;;;13.00;11.00;;;;;17.38;86.74;102095.31;5076401;28;45329;-65
2022/10/18 05:50:10;;;;;;;;;14.00;12.67;;;;;17.33;86.88;102095.31;5074783;28;45298;-66
2022/10/18 05:52:35;;;;;;;;;16.33;13.00;;;;;17.30;86.79;102095.34;5057096;28;46145;-66
2022/10/18 05:55:01;;;;;;;;;11.67;11.67;;;;;17.32;87.00;102097.97;5071047;28;45402;-67
2022/10/18 05:57:26;;;;;;;;;12.33;12.00;;;;;17.27;86.81;102091.81;5074819;28;45556;-70
2022/10/18 05:59:52;;;;;;;;;16.33;11.33;;;;;17.36;86.81;102108.53;5046805;28;45571;-68
2022/10/18 06:02:17;;;;;;;;;14.33;13.67;;;;;17.31;86.72;102096.22;5076295;27;45525;-66
2022/10/18 06:04:43;;;;;;;;;12.00;10.33;;;;;17.39;86.69;102107.66;5079136;28;45482;-67
2022/10/18 06:07:10;;;;;;;;;14.33;11.67;;;;;17.45;86.10;102117.34;5079184;28;45461;-69
2022/10/18 06:09:36;;;;;;;;;11.67;10.00;;;;;17.26;86.36;102090.94;5064666;28;45235;-68
2022/10/18 06:12:02;;;;;;;;;10.33;9.67;;;;;17.46;86.10;102119.09;5074075;27;45732;-71
2022/10/18 06:14:28;;;;;;;;;12.67;11.33;;;;;17.31;85.96;102110.34;5058931;28;46868;-64
2022/10/18 06:16:55;;;;;;;;;12.67;12.33;;;;;17.31;86.42;102115.63;5057078;28;45486;-65
2022/10/18 06:19:22;;;;;;;;;16.00;9.33;;;;;17.39;86.48;102128.84;5075563;27;45601;-68
2022/10/18 06:21:48;;;;;;;;;7.67;7.67;;;;;17.39;86.27;102136.78;5071118;27;45442;-67
2022/10/18 06:24:13;;;;;;;;;9.33;9.33;;;;;17.32;86.83;102130.66;5061518;28;47162;-66
2022/10/18 06:26:39;;;;;;;;;8.33;8.00;;;;;17.38;86.52;102117.38;5074619;28;45421;-70
2022/10/18 06:29:05;;;;;;;;;8.00;7.33;;;;;17.42;86.14;102125.31;5072915;28;45437;-68
2022/10/18 06:31:31;;;;;;;;;10.33;8.33;;;;;17.43;85.92;102133.25;5068092;28;45432;-65
2022/10/18 06:33:57;;;;;;;;;8.67;8.00;;;;;17.46;86.14;102133.22;5076215;27;46472;-66
2022/10/18 06:36:24;;;;;;;;;9.00;9.00;;;;;17.51;85.81;102139.41;5074610;27;45431;-67
2022/10/18 06:38:50;;;;;;;;;10.00;7.67;;;;;17.52;86.05;102125.25;5074572;28;45488;-65
2022/10/18 06:41:20;;;;;;;;;8.67;7.67;;;;;17.62;85.89;102139.34;5075329;28;45497;-66
2022/10/18 06:43:51;;;;;;;;;9.00;8.33;;;;;17.63;85.70;102127.88;5076354;27;45619;-65
2022/10/18 06:46:18;;;;;;;;;8.33;7.33;;;;;17.64;85.71;102129.63;5078496;28;45467;-68
2022/10/18 06:48:44;;;;;;;;;8.67;7.33;;;;;17.70;85.39;102142.84;5079717;27;45450;-65
2022/10/18 06:51:10;;;;;;;;;9.67;9.67;;;;;17.71;85.28;102141.94;5074297;28;45502;-66
2022/10/18 06:53:38;;;;;;;;;10.00;7.33;;;;;17.74;85.11;102139.28;5072261;28;45612;-66
2022/10/18 06:56:07;;;;;;;;;8.00;8.00;;;;;17.82;84.77;102148.97;5073424;27;45513;-65
2022/10/18 06:58:34;;;;;;;;;7.67;7.33;;;;;17.76;84.41;102140.16;5074215;28;45389;-65
2022/10/18 07:01:06;;;;;;;;;8.33;8.33;;;;;17.85;84.47;102154.28;5056940;28;45803;-65
2022/10/18 07:03:33;;;;;;;;;10.33;8.67;;;;;17.86;84.40;102156.03;5075868;28;45489;-66
2022/10/18 07:06:05;;;;;;;;;7.67;6.00;;;;;17.83;84.66;102166.66;5061456;28;45539;-66
2022/10/18 07:08:31;;;;;;;;;9.67;8.33;;;;;17.85;84.18;102159.59;5061780;28;45397;-67
2022/10/18 07:10:57;;;;;;;;;8.33;8.33;;;;;17.83;84.53;102148.97;5078554;27;45320;-67
2022/10/18 07:13:23;;;;;;;;;12.00;10.00;;;;;17.85;84.18;102151.63;5077346;28;46114;-65
2022/10/18 07:15:48;;;;;;;;;13.33;9.33;;;;;17.92;83.93;102169.25;5077422;28;45362;-66
2022/10/18 07:18:14;;;;;;;;;11.33;9.67;;;;;17.92;83.77;102167.50;5077245;28;45813;-66
2022/10/18 07:20:40;;;;;;;;;13.67;11.00;;;;;17.93;83.85;102163.94;5070267;28;45471;-67
2022/10/18 07:23:07;;;;;;;;;18.33;12.00;;;;;17.94;83.22;102172.78;5072396;27;45615;-66
2022/10/18 07:25:33;;;;;;;;;12.67;9.67;;;;;17.93;83.65;102168.38;5073543;28;46016;-67
2022/10/18 07:27:59;;;;;;;;;14.00;9.67;;;;;17.90;83.93;102174.56;5078458;27;45704;-66
2022/10/18 07:30:25;;;;;;;;;9.33;9.33;;;;;17.84;84.19;102163.97;5061764;28;46812;-68
2022/10/18 07:32:51;;;;;;;;;10.67;8.33;;;;;17.96;83.51;102174.53;5072088;27;46967;-67
2022/10/18 07:35:17;;;;;;;;;9.00;9.00;;;;;17.89;83.29;102178.13;5074057;28;45553;-66
2022/10/18 07:37:43;;;;;;;;;8.67;8.00;;;;;17.87;83.69;102176.34;5075677;28;46156;-67
2022/10/18 07:40:10;;;;;;;;;10.00;9.33;;;;;17.92;83.86;102178.09;5056084;28;45446;-66
2022/10/18 07:42:36;;;;;;;;;9.33;9.33;;;;;17.95;83.27;102167.47;5076064;28;45442;-69
2022/10/18 07:45:02;;;;;;;;;7.00;6.67;;;;;18.11;82.90;102181.50;5060281;27;45318;-65
2022/10/18 07:47:29;;;;;;;;;10.00;10.00;;;;;18.12;82.71;102183.25;5071102;28;45431;-67
2022/10/18 07:49:55;;;;;;;;;8.00;8.00;;;;;18.05;82.90;102176.25;5073759;28;45422;-66
2022/10/18 07:52:20;;;;;;;;;8.67;7.00;;;;;18.22;82.48;102192.94;5073119;28;45468;-66
2022/10/18 07:54:46;;;;;;;;;9.67;7.33;;;;;18.22;82.39;102190.28;5072873;28;45456;-65
2022/10/18 07:57:12;;;;;;;;;9.00;7.33;;;;;18.28;82.63;102194.66;5070799;27;45386;-66
2022/10/18 07:59:40;;;;;;;;;8.67;8.00;;;;;18.39;82.15;102211.38;5077553;28;45409;-68
2022/10/18 08:02:06;;;;;;;;;9.33;8.00;;;;;18.42;81.59;102213.13;5076990;28;45436;-67
2022/10/18 08:04:31;;;;;;;;;11.00;7.67;;;;;18.39;81.16;102208.72;5076895;28;45463;-66
2022/10/18 08:06:57;;;;;;;;;11.00;7.00;;;;;18.41;81.14;102199.00;5077510;27;45371;-66
2022/10/18 08:09:22;;;;;;;;;9.00;7.33;;;;;18.49;80.91;102214.84;5077286;27;45424;-67
2022/10/18 08:11:48;;;;;;;;;7.33;6.00;;;;;18.53;80.67;102221.00;5074327;27;46684;-65
2022/10/18 08:14:14;;;;;;;;;9.00;9.00;;;;;18.54;80.64;102221.00;5072739;28;45465;-66
2022/10/18 08:16:49;;;;;;;;;9.67;9.67;;;;;18.43;80.50;102206.94;5072991;27;45912;-66
2022/10/18 08:19:14;;;;;;;;;12.67;11.00;;;;;18.41;80.44;102224.63;5073322;28;45684;-65
2022/10/18 08:21:40;;;;;;;;;8.33;6.67;;;;;18.32;80.20;102225.59;5074516;28;46276;-66
2022/10/18 08:24:06;;;;;;;;;9.33;7.33;;;;;18.41;80.98;102228.19;5074351;28;46016;-66
2022/10/18 08:26:31;;;;;;;;;9.67;9.33;;;;;18.43;80.62;102234.31;5072507;27;45618;-66
2022/10/18 08:29:02;;;;;;;;;8.33;6.00;;;;;18.37;80.41;102239.69;5073222;28;45371;-67
2022/10/18 08:31:28;;;;;;;;;7.67;6.33;;;;;18.46;80.18;102232.56;5073221;27;46096;-67
2022/10/18 08:33:56;;;;;;;;;7.00;7.00;;;;;18.60;79.52;102244.84;5077112;28;45497;-67
2022/10/18 08:36:22;;;;;;;;;8.00;8.00;;;;;18.58;79.30;102245.72;5064265;28;45580;-66
2022/10/18 08:38:48;;;;;;;;;11.33;8.67;;;;;18.74;78.93;102243.84;5074509;28;45410;-67
2022/10/18 08:41:24;;;;;;;;;6.67;6.00;;;;;18.79;78.44;102239.41;5072537;28;46155;-67
2022/10/18 08:44:24;;;;;;;;;6.00;5.00;;;;;18.78;78.54;102230.56;5069674;27;45461;-66
2022/10/18 08:47:21;;;;;;;;;6.00;6.00;;;;;18.93;78.01;102237.50;5072552;28;45511;-67
2022/10/18 08:49:56;;;;;;;;;7.00;6.00;;;;;19.15;77.20;102246.19;5060030;28;45626;-70
2022/10/18 08:52:40;;;;;;;;;5.33;5.33;;;;;19.27;76.15;102231.91;5076855;27;45756;-70
2022/10/18 08:55:36;;;;;;;;;5.33;5.33;;;;;19.35;76.24;102223.84;5076260;28;45387;-67
2022/10/18 08:58:15;;;;;;;;;5.00;5.00;;;;;19.61;75.23;102234.19;5098401;27;45397;-66
2022/10/18 09:00:51;;;;;;;;;5.00;5.00;;;;;19.91;73.79;102231.16;5073321;28;45902;-65
2022/10/18 09:03:43;;;;;;;;;5.33;5.33;;;;;19.99;72.69;102235.50;5061584;28;47002;-66
2022/10/18 09:06:43;;;;;;;;;6.67;5.00;;;;;19.99;72.84;102231.06;5076104;28;45350;-65
2022/10/18 09:09:34;;;;;;;;;7.33;7.00;;;;;20.05;73.10;102219.44;5076337;27;45491;-67
2022/10/18 09:12:24;;;;;;;;;8.33;6.00;;;;;19.98;72.69;102223.09;5057457;28;45788;-66
2022/10/18 09:15:12;;;;;;;;;6.00;5.67;;;;;20.04;72.96;102229.22;5075616;27;45586;-66
2022/10/18 09:17:47;;;;;;;;;7.00;4.00;;;;;19.79;72.54;102227.78;5080288;28;45393;-67
2022/10/18 09:20:20;;;;;;;;;4.00;4.00;;;;;20.17;72.02;102223.72;5080215;27;45445;-65
2022/10/18 09:22:53;;;;;;;;;4.33;4.33;;;;;20.56;70.63;102227.59;5072972;27;45469;-65
2022/10/18 09:25:34;;;;;;;;;4.00;4.00;;;;;20.53;69.67;102227.63;5079132;27;45446;-65
2022/10/18 09:28:38;;;;;;;;;3.00;3.00;;;;;20.72;69.59;102231.78;5066233;27;45429;-66
2022/10/18 09:31:20;;;;;;;;;7.33;6.00;;;;;20.47;69.86;102220.59;5019066;28;45607;-67
2022/10/18 09:33:58;;;;;;;;;11.67;10.00;;;;;20.40;71.12;102218.06;5074985;27;45466;-66
2022/10/18 09:36:32;;;;;;;;;12.00;10.67;;;;;20.24;72.72;102215.66;5079619;27;46398;-65
2022/10/18 09:39:03;;;;;;;;;9.67;7.33;;;;;20.21;72.12;102218.31;5077621;28;45359;-67
2022/10/18 09:41:52;;;;;;;;;8.00;7.00;;;;;19.95;71.25;102218.69;5077046;27;45299;-66
2022/10/18 09:44:19;;;;;;;;;6.33;5.67;;;;;19.84;72.27;102221.50;5062693;28;45598;-66
2022/10/18 09:47:06;;;;;;;;;7.33;5.00;;;;;19.79;72.67;102223.34;5071851;27;46530;-65
2022/10/18 09:49:39;;;;;;;;;5.00;4.00;;;;;19.91;72.18;102231.16;5089715;27;45666;-66
2022/10/18 09:52:12;;;;;;;;;4.67;4.67;;;;;19.79;72.58;102230.44;5075714;28;45550;-66
2022/10/18 09:54:50;;;;;;;;;5.00;5.00;;;;;19.78;73.09;102237.53;5075729;27;45530;-66
2022/10/18 09:57:22;;;;;;;;;7.33;6.00;;;;;19.55;73.69;102234.22;5076875;28;46638;-65
2022/10/18 09:59:49;;;;;;;;;4.00;4.00;;;;;19.33;73.65;102217.66;5077437;28;45523;-65
2022/10/18 10:02:23;;;;;;;;;5.00;5.00;;;;;19.40;73.86;102233.50;5090912;27;45553;-66
2022/10/18 10:04:50;;;;;;;;;4.33;4.33;;;;;19.52;74.28;102224.53;5079102;28;45493;-66
2022/10/18 10:07:23;;;;;;;;;4.33;4.33;;;;;20.58;72.76;102227.59;5079399;27;45397;-65
2022/10/18 10:09:57;;;;;;;;;5.67;4.00;;;;;20.56;69.99;102200.13;5078165;27;45449;-66
2022/10/18 10:12:32;;;;;;;;;4.00;2.33;;;;;20.37;70.81;102226.09;5075345;28;45572;-66
2022/10/18 10:15:25;;;;;;;;;4.00;3.00;;;;;20.19;71.53;102220.13;5075420;28;45449;-66
2022/10/18 10:18:14;;;;;;;;;4.00;4.00;;;;;20.01;71.54;102207.13;5075417;27;45728;-68
2022/10/18 10:20:45;;;;;;;;;6.00;5.00;;;;;19.99;72.17;102217.75;5076630;27;45345;-67
2022/10/18 10:23:32;;;;;;;;;3.33;3.33;;;;;20.11;72.52;102227.34;5074536;28;45884;-66
2022/10/18 10:26:01;;;;;;;;;4.67;3.33;;;;;21.36;70.24;102232.41;5056967;28;45397;-66
2022/10/18 10:28:47;;;;;;;;;7.00;5.00;;;;;21.63;66.78;102231.94;5074275;28;45850;-65
2022/10/18 10:31:33;;;;;;;;;3.00;3.00;;;;;21.10;67.93;102232.91;5069483;27;45424;-66
2022/10/18 10:34:12;;;;;;;;;4.67;3.00;;;;;20.82;69.29;102231.63;5066043;28;45524;-64
2022/10/18 10:36:52;;;;;;;;;4.67;4.00;;;;;20.58;70.36;102235.56;5077123;27;45555;-66
2022/10/18 10:39:20;;;;;;;;;4.00;3.67;;;;;20.37;70.57;102223.44;5073109;28;45490;-64
2022/10/18 10:41:57;;;;;;;;;4.33;4.33;;;;;20.20;71.70;102231.69;5059313;28;45449;-66
2022/10/18 10:44:31;;;;;;;;;4.00;4.00;;;;;20.12;71.84;102237.06;5057976;27;45554;-65
2022/10/18 10:46:57;;;;;;;;;7.33;4.00;;;;;20.08;71.77;102224.75;5073287;28;45438;-67
2022/10/18 10:49:28;;;;;;;;;4.33;4.33;;;;;20.01;72.55;102233.72;5076108;28;46184;-65
2022/10/18 10:51:56;;;;;;;;;3.67;3.67;;;;;19.85;71.95;102217.94;5075918;28;45785;-65
2022/10/18 10:54:25;;;;;;;;;3.33;3.33;;;;;19.97;72.65;102232.84;5073409;27;45413;-67
2022/10/18 10:57:11;;;;;;;;;4.00;4.00;;;;;19.96;73.43;102230.25;5074308;27;45523;-67
2022/10/18 10:59:46;;;;;;;;;4.00;4.00;;;;;19.88;73.69;102217.94;5052903;28;48378;-67
2022/10/18 11:02:17;;;;;;;;;3.00;3.00;;;;;19.86;73.64;102229.44;5091983;27;45493;-67
2022/10/18 11:04:54;;;;;;;;;5.67;3.67;;;;;19.78;73.59;102220.72;5072610;28;45423;-68
2022/10/18 11:07:32;;;;;;;;;9.00;6.67;;;;;19.70;73.81;102227.00;5070919;28;45594;-67
2022/10/18 11:10:20;;;;;;;;;13.00;10.00;;;;;19.58;74.24;102220.94;5066071;28;46048;-68
2022/10/18 11:13:25;;;;;;;;;10.00;9.33;;;;;19.46;74.89;102206.88;5056156;28;46045;-66
2022/10/18 11:16:03;;;;;;;;;9.33;7.00;;;;;19.57;74.83;102216.50;5054070;27;45876;-67
2022/10/18 11:18:35;;;;;;;;;11.67;9.67;;;;;19.50;74.69;102215.69;5070344;28;45464;-67
2022/10/18 11:21:06;;;;;;;;;6.33;6.33;;;;;19.55;74.95;102220.94;5081792;27;45452;-66
2022/10/18 11:23:35;;;;;;;;;5.00;3.33;;;;;19.58;73.67;102216.50;5054695;28;45435;-68
2022/10/18 11:26:07;;;;;;;;;5.67;3.00;;;;;19.53;74.15;102207.69;5094625;27;45426;-67
2022/10/18 11:28:42;;;;;;;;;5.67;4.00;;;;;19.57;74.91;102211.19;5075234;28;45958;-68
2022/10/18 11:31:32;;;;;;;;;2.67;2.67;;;;;19.62;74.46;102204.03;5074342;28;45705;-67
2022/10/18 11:34:10;;;;;;;;;3.00;2.33;;;;;19.57;74.02;102205.88;5048951;28;45523;-67